sensor_id;sensor_type;location;lat;lon;timestamp;pressure;altitude;pressure_sealevel;temperature
70333;BMP280;57747;43.548;-5.704;2022-08-30T00:00:18;101623.88;;;19.93
70333;BMP280;57747;43.548;-5.704;2022-08-30T00:03:05;101616.66;;;19.88
70333;BMP280;57747;43.548;-5.704;2022-08-30T00:05:32;101618.44;;;19.93
70333;BMP280;57747;43.548;-5.704;2022-08-30T00:07:58;101613.91;;;20.05
70333;BMP280;57747;43.548;-5.704;2022-08-30T00:10:28;101615.81;;;20.14
70333;BMP280;57747;43.548;-5.704;2022-08-30T00:12:55;101611.69;;;20.07
70333;BMP280;57747;43.548;-5.704;2022-08-30T00:15:23;101608.97;;;20.07
70333;BMP280;57747;43.548;-5.704;2022-08-30T00:17:51;101608.47;;;20.05
70333;BMP280;57747;43.548;-5.704;2022-08-30T00:20:22;101608.00;;;20.03
70333;BMP280;57747;43.548;-5.704;2022-08-30T00:22:48;101606.28;;;19.90
70333;BMP280;57747;43.548;-5.704;2022-08-30T00:25:15;101617.31;;;19.94
70333;BMP280;57747;43.548;-5.704;2022-08-30T00:27:41;101611.72;;;19.99
70333;BMP280;57747;43.548;-5.704;2022-08-30T00:30:08;101606.44;;;19.94
70333;BMP280;57747;43.548;-5.704;2022-08-30T00:32:34;101622.47;;;19.86
70333;BMP280;57747;43.548;-5.704;2022-08-30T00:35:00;101616.19;;;19.86
70333;BMP280;57747;43.548;-5.704;2022-08-30T00:37:29;101624.22;;;19.91
70333;BMP280;57747;43.548;-5.704;2022-08-30T00:39:56;101626.97;;;19.82
70333;BMP280;57747;43.548;-5.704;2022-08-30T00:42:21;101614.91;;;19.75
70333;BMP280;57747;43.548;-5.704;2022-08-30T00:44:52;101617.03;;;19.69
70333;BMP280;57747;43.548;-5.704;2022-08-30T00:47:18;101627.56;;;19.79
70333;BMP280;57747;43.548;-5.704;2022-08-30T00:49:48;101624.53;;;19.72
70333;BMP280;57747;43.548;-5.704;2022-08-30T00:52:19;101621.31;;;19.79
70333;BMP280;57747;43.548;-5.704;2022-08-30T00:54:50;101621.81;;;19.72
70333;BMP280;57747;43.548;-5.704;2022-08-30T00:57:18;101618.63;;;19.70
70333;BMP280;57747;43.548;-5.704;2022-08-30T01:02:34;101621.03;;;19.63
70333;BMP280;57747;43.548;-5.704;2022-08-30T01:05:03;101623.91;;;19.75
70333;BMP280;57747;43.548;-5.704;2022-08-30T01:07:29;101624.06;;;19.61
70333;BMP280;57747;43.548;-5.704;2022-08-30T01:09:57;101622.81;;;19.50
70333;BMP280;57747;43.548;-5.704;2022-08-30T01:12:25;101619.25;;;19.58
70333;BMP280;57747;43.548;-5.704;2022-08-30T01:14:54;101620.69;;;19.38
70333;BMP280;57747;43.548;-5.704;2022-08-30T01:17:20;101608.84;;;19.34
70333;BMP280;57747;43.548;-5.704;2022-08-30T01:22:29;101606.78;;;19.40
70333;BMP280;57747;43.548;-5.704;2022-08-30T01:24:58;101610.63;;;19.47
70333;BMP280;57747;43.548;-5.704;2022-08-30T01:27:25;101614.13;;;19.30
70333;BMP280;57747;43.548;-5.704;2022-08-30T01:29:55;101617.63;;;19.13
70333;BMP280;57747;43.548;-5.704;2022-08-30T01:32:25;101619.41;;;19.27
70333;BMP280;57747;43.548;-5.704;2022-08-30T01:34:53;101619.06;;;19.28
70333;BMP280;57747;43.548;-5.704;2022-08-30T01:37:27;101621.31;;;19.09
70333;BMP280;57747;43.548;-5.704;2022-08-30T01:39:59;101621.16;;;19.23
70333;BMP280;57747;43.548;-5.704;2022-08-30T01:42:24;101627.72;;;19.39
70333;BMP280;57747;43.548;-5.704;2022-08-30T01:44:50;101610.75;;;19.42
70333;BMP280;57747;43.548;-5.704;2022-08-30T01:47:19;101622.28;;;19.30
70333;BMP280;57747;43.548;-5.704;2022-08-30T01:49:46;101623.25;;;19.34
70333;BMP280;57747;43.548;-5.704;2022-08-30T01:52:16;101623.41;;;19.29
70333;BMP280;57747;43.548;-5.704;2022-08-30T01:54:42;101624.19;;;19.30
70333;BMP280;57747;43.548;-5.704;2022-08-30T01:57:11;101620.84;;;19.33
70333;BMP280;57747;43.548;-5.704;2022-08-30T02:02:52;101621.16;;;19.14
70333;BMP280;57747;43.548;-5.704;2022-08-30T02:05:18;101619.03;;;19.11
70333;BMP280;57747;43.548;-5.704;2022-08-30T02:07:46;101624.16;;;19.04
70333;BMP280;57747;43.548;-5.704;2022-08-30T02:10:12;101610.88;;;19.02
70333;BMP280;57747;43.548;-5.704;2022-08-30T02:12:39;101613.94;;;19.09
70333;BMP280;57747;43.548;-5.704;2022-08-30T02:15:08;101613.59;;;19.02
70333;BMP280;57747;43.548;-5.704;2022-08-30T02:17:35;101613.41;;;18.90
70333;BMP280;57747;43.548;-5.704;2022-08-30T02:20:01;101618.94;;;18.76
70333;BMP280;57747;43.548;-5.704;2022-08-30T02:22:26;101614.50;;;18.71
70333;BMP280;57747;43.548;-5.704;2022-08-30T02:24:52;101609.66;;;18.68
70333;BMP280;57747;43.548;-5.704;2022-08-30T02:27:17;101617.50;;;18.78
70333;BMP280;57747;43.548;-5.704;2022-08-30T02:29:43;101609.34;;;18.78
70333;BMP280;57747;43.548;-5.704;2022-08-30T02:32:09;101608.91;;;18.76
70333;BMP280;57747;43.548;-5.704;2022-08-30T02:34:35;101614.78;;;18.78
70333;BMP280;57747;43.548;-5.704;2022-08-30T02:37:02;101613.03;;;18.74
70333;BMP280;57747;43.548;-5.704;2022-08-30T02:39:30;101617.66;;;18.73
70333;BMP280;57747;43.548;-5.704;2022-08-30T02:41:56;101613.66;;;18.71
70333;BMP280;57747;43.548;-5.704;2022-08-30T02:44:21;101618.94;;;18.76
70333;BMP280;57747;43.548;-5.704;2022-08-30T02:46:50;101616.72;;;18.78
70333;BMP280;57747;43.548;-5.704;2022-08-30T02:49:15;101617.94;;;18.63
70333;BMP280;57747;43.548;-5.704;2022-08-30T02:51:41;101613.78;;;18.57
70333;BMP280;57747;43.548;-5.704;2022-08-30T02:54:09;101607.66;;;18.51
70333;BMP280;57747;43.548;-5.704;2022-08-30T02:56:34;101610.09;;;18.53
70333;BMP280;57747;43.548;-5.704;2022-08-30T02:59:00;101611.06;;;18.57
70333;BMP280;57747;43.548;-5.704;2022-08-30T03:01:29;101606.72;;;18.56
70333;BMP280;57747;43.548;-5.704;2022-08-30T03:03:59;101606.25;;;18.54
70333;BMP280;57747;43.548;-5.704;2022-08-30T03:06:25;101601.06;;;18.44
70333;BMP280;57747;43.548;-5.704;2022-08-30T03:08:50;101603.38;;;18.50
70333;BMP280;57747;43.548;-5.704;2022-08-30T03:11:16;101609.31;;;18.61
70333;BMP280;57747;43.548;-5.704;2022-08-30T03:13:41;101601.13;;;18.52
70333;BMP280;57747;43.548;-5.704;2022-08-30T03:16:07;101603.63;;;18.49
70333;BMP280;57747;43.548;-5.704;2022-08-30T03:18:35;101610.25;;;18.56
70333;BMP280;57747;43.548;-5.704;2022-08-30T03:21:01;101611.41;;;18.64
70333;BMP280;57747;43.548;-5.704;2022-08-30T03:23:29;101607.88;;;18.64
70333;BMP280;57747;43.548;-5.704;2022-08-30T03:25:55;101605.00;;;18.69
70333;BMP280;57747;43.548;-5.704;2022-08-30T03:28:23;101604.59;;;18.44
70333;BMP280;57747;43.548;-5.704;2022-08-30T03:30:48;101608.66;;;18.55
70333;BMP280;57747;43.548;-5.704;2022-08-30T03:33:14;101607.06;;;18.63
70333;BMP280;57747;43.548;-5.704;2022-08-30T03:35:42;101613.22;;;18.46
70333;BMP280;57747;43.548;-5.704;2022-08-30T03:38:10;101613.13;;;18.60
70333;BMP280;57747;43.548;-5.704;2022-08-30T03:40:38;101614.75;;;18.61
70333;BMP280;57747;43.548;-5.704;2022-08-30T03:43:04;101613.06;;;18.43
70333;BMP280;57747;43.548;-5.704;2022-08-30T03:45:29;101617.69;;;18.42
70333;BMP280;57747;43.548;-5.704;2022-08-30T03:47:55;101616.25;;;18.45
70333;BMP280;57747;43.548;-5.704;2022-08-30T03:50:21;101608.09;;;18.45
70333;BMP280;57747;43.548;-5.704;2022-08-30T03:52:49;101610.81;;;18.45
70333;BMP280;57747;43.548;-5.704;2022-08-30T03:55:15;101606.34;;;18.49
70333;BMP280;57747;43.548;-5.704;2022-08-30T03:57:40;101602.19;;;18.43
70333;BMP280;57747;43.548;-5.704;2022-08-30T04:02:55;101613.81;;;18.34
70333;BMP280;57747;43.548;-5.704;2022-08-30T04:05:22;101612.88;;;18.39
70333;BMP280;57747;43.548;-5.704;2022-08-30T04:07:48;101616.22;;;18.36
70333;BMP280;57747;43.548;-5.704;2022-08-30T04:10:14;101614.00;;;18.38
70333;BMP280;57747;43.548;-5.704;2022-08-30T04:12:40;101611.63;;;18.45
70333;BMP280;57747;43.548;-5.704;2022-08-30T04:15:06;101618.69;;;18.55
70333;BMP280;57747;43.548;-5.704;2022-08-30T04:17:33;101616.38;;;18.39
70333;BMP280;57747;43.548;-5.704;2022-08-30T04:19:59;101617.44;;;18.30
70333;BMP280;57747;43.548;-5.704;2022-08-30T04:22:24;101615.56;;;18.30
70333;BMP280;57747;43.548;-5.704;2022-08-30T04:24:50;101616.53;;;18.34
70333;BMP280;57747;43.548;-5.704;2022-08-30T04:27:18;101626.09;;;18.32
70333;BMP280;57747;43.548;-5.704;2022-08-30T04:29:45;101621.59;;;18.27
70333;BMP280;57747;43.548;-5.704;2022-08-30T04:32:14;101629.81;;;18.45
70333;BMP280;57747;43.548;-5.704;2022-08-30T04:34:41;101630.34;;;18.47
70333;BMP280;57747;43.548;-5.704;2022-08-30T04:37:07;101636.06;;;18.45
70333;BMP280;57747;43.548;-5.704;2022-08-30T04:39:32;101639.63;;;18.54
70333;BMP280;57747;43.548;-5.704;2022-08-30T04:41:58;101635.84;;;18.64
70333;BMP280;57747;43.548;-5.704;2022-08-30T04:44:24;101636.94;;;18.63
70333;BMP280;57747;43.548;-5.704;2022-08-30T04:46:54;101642.56;;;18.67
70333;BMP280;57747;43.548;-5.704;2022-08-30T04:49:19;101641.94;;;18.70
70333;BMP280;57747;43.548;-5.704;2022-08-30T04:51:48;101642.75;;;18.70
70333;BMP280;57747;43.548;-5.704;2022-08-30T04:54:15;101648.22;;;18.79
70333;BMP280;57747;43.548;-5.704;2022-08-30T04:56:40;101653.56;;;18.62
70333;BMP280;57747;43.548;-5.704;2022-08-30T04:59:10;101651.00;;;18.56
70333;BMP280;57747;43.548;-5.704;2022-08-30T05:01:35;101654.72;;;18.69
70333;BMP280;57747;43.548;-5.704;2022-08-30T05:04:02;101660.19;;;18.78
70333;BMP280;57747;43.548;-5.704;2022-08-30T05:06:29;101660.72;;;18.89
70333;BMP280;57747;43.548;-5.704;2022-08-30T05:08:57;101660.44;;;18.99
70333;BMP280;57747;43.548;-5.704;2022-08-30T05:11:27;101667.63;;;19.04
70333;BMP280;57747;43.548;-5.704;2022-08-30T05:13:53;101668.09;;;19.06
70333;BMP280;57747;43.548;-5.704;2022-08-30T05:16:21;101662.53;;;19.11
70333;BMP280;57747;43.548;-5.704;2022-08-30T05:18:48;101667.16;;;19.10
70333;BMP280;57747;43.548;-5.704;2022-08-30T05:21:19;101671.19;;;19.13
70333;BMP280;57747;43.548;-5.704;2022-08-30T05:23:45;101667.81;;;19.16
70333;BMP280;57747;43.548;-5.704;2022-08-30T05:26:16;101672.81;;;19.23
70333;BMP280;57747;43.548;-5.704;2022-08-30T05:28:44;101674.09;;;19.25
70333;BMP280;57747;43.548;-5.704;2022-08-30T05:33:38;101680.81;;;19.28
70333;BMP280;57747;43.548;-5.704;2022-08-30T05:36:10;101681.94;;;19.27
70333;BMP280;57747;43.548;-5.704;2022-08-30T05:38:36;101683.84;;;19.26
70333;BMP280;57747;43.548;-5.704;2022-08-30T05:41:02;101689.28;;;19.26
70333;BMP280;57747;43.548;-5.704;2022-08-30T05:43:28;101688.81;;;19.33
70333;BMP280;57747;43.548;-5.704;2022-08-30T05:46:00;101689.16;;;19.31
70333;BMP280;57747;43.548;-5.704;2022-08-30T05:48:26;101697.47;;;19.35
70333;BMP280;57747;43.548;-5.704;2022-08-30T05:51:02;101697.47;;;19.35
70333;BMP280;57747;43.548;-5.704;2022-08-30T05:53:28;101705.91;;;19.33
70333;BMP280;57747;43.548;-5.704;2022-08-30T05:55:54;101713.28;;;19.33
70333;BMP280;57747;43.548;-5.704;2022-08-30T05:58:19;101707.06;;;19.32
70333;BMP280;57747;43.548;-5.704;2022-08-30T06:00:48;101715.50;;;19.31
70333;BMP280;57747;43.548;-5.704;2022-08-30T06:03:16;101713.94;;;19.39
70333;BMP280;57747;43.548;-5.704;2022-08-30T06:05:42;101716.97;;;19.37
70333;BMP280;57747;43.548;-5.704;2022-08-30T06:08:10;101718.56;;;19.38
70333;BMP280;57747;43.548;-5.704;2022-08-30T06:10:35;101728.34;;;19.39
70333;BMP280;57747;43.548;-5.704;2022-08-30T06:13:01;101721.13;;;19.43
70333;BMP280;57747;43.548;-5.704;2022-08-30T06:15:29;101725.44;;;19.36
70333;BMP280;57747;43.548;-5.704;2022-08-30T06:17:54;101722.44;;;19.46
70333;BMP280;57747;43.548;-5.704;2022-08-30T06:20:20;101728.03;;;19.49
70333;BMP280;57747;43.548;-5.704;2022-08-30T06:22:46;101728.19;;;19.53
70333;BMP280;57747;43.548;-5.704;2022-08-30T06:25:12;101725.66;;;19.57
70333;BMP280;57747;43.548;-5.704;2022-08-30T06:27:38;101733.50;;;19.58
70333;BMP280;57747;43.548;-5.704;2022-08-30T06:30:07;101733.97;;;19.60
70333;BMP280;57747;43.548;-5.704;2022-08-30T06:32:38;101736.88;;;19.64
70333;BMP280;57747;43.548;-5.704;2022-08-30T06:35:05;101737.50;;;19.69
70333;BMP280;57747;43.548;-5.704;2022-08-30T06:37:32;101738.16;;;19.75
70333;BMP280;57747;43.548;-5.704;2022-08-30T06:39:59;101736.25;;;19.84
70333;BMP280;57747;43.548;-5.704;2022-08-30T06:42:28;101740.25;;;19.87
70333;BMP280;57747;43.548;-5.704;2022-08-30T06:45:02;101740.56;;;19.85
70333;BMP280;57747;43.548;-5.704;2022-08-30T06:47:28;101743.13;;;19.82
70333;BMP280;57747;43.548;-5.704;2022-08-30T06:49:54;101743.63;;;19.93
70333;BMP280;57747;43.548;-5.704;2022-08-30T06:52:19;101744.41;;;19.93
70333;BMP280;57747;43.548;-5.704;2022-08-30T06:54:45;101748.91;;;19.98
70333;BMP280;57747;43.548;-5.704;2022-08-30T06:57:11;101748.75;;;20.03
70333;BMP280;57747;43.548;-5.704;2022-08-30T06:59:37;101753.53;;;20.06
70333;BMP280;57747;43.548;-5.704;2022-08-30T07:02:04;101754.66;;;20.05
70333;BMP280;57747;43.548;-5.704;2022-08-30T07:04:30;101752.56;;;19.84
70333;BMP280;57747;43.548;-5.704;2022-08-30T07:06:56;101763.97;;;19.95
70333;BMP280;57747;43.548;-5.704;2022-08-30T07:09:25;101762.66;;;20.10
70333;BMP280;57747;43.548;-5.704;2022-08-30T07:11:53;101767.63;;;20.25
70333;BMP280;57747;43.548;-5.704;2022-08-30T07:14:20;101771.16;;;20.26
70333;BMP280;57747;43.548;-5.704;2022-08-30T07:16:45;101769.25;;;20.26
70333;BMP280;57747;43.548;-5.704;2022-08-30T07:19:14;101777.41;;;20.35
70333;BMP280;57747;43.548;-5.704;2022-08-30T07:21:41;101779.19;;;20.31
70333;BMP280;57747;43.548;-5.704;2022-08-30T07:24:11;101784.13;;;20.38
70333;BMP280;57747;43.548;-5.704;2022-08-30T07:26:45;101783.00;;;20.39
70333;BMP280;57747;43.548;-5.704;2022-08-30T07:29:13;101793.72;;;20.44
70333;BMP280;57747;43.548;-5.704;2022-08-30T07:31:42;101782.66;;;20.40
70333;BMP280;57747;43.548;-5.704;2022-08-30T07:34:08;101791.31;;;20.42
70333;BMP280;57747;43.548;-5.704;2022-08-30T07:36:37;101787.94;;;20.45
70333;BMP280;57747;43.548;-5.704;2022-08-30T07:39:05;101796.94;;;20.46
70333;BMP280;57747;43.548;-5.704;2022-08-30T07:41:38;101797.22;;;20.53
70333;BMP280;57747;43.548;-5.704;2022-08-30T07:44:09;101799.78;;;20.58
70333;BMP280;57747;43.548;-5.704;2022-08-30T07:46:38;101804.91;;;20.60
70333;BMP280;57747;43.548;-5.704;2022-08-30T07:49:04;101802.81;;;20.65
70333;BMP280;57747;43.548;-5.704;2022-08-30T07:51:31;101804.09;;;20.68
70333;BMP280;57747;43.548;-5.704;2022-08-30T07:53:56;101800.41;;;20.73
70333;BMP280;57747;43.548;-5.704;2022-08-30T07:56:23;101802.31;;;20.72
70333;BMP280;57747;43.548;-5.704;2022-08-30T07:58:52;101799.44;;;20.69
70333;BMP280;57747;43.548;-5.704;2022-08-30T08:01:19;101808.06;;;20.71
70333;BMP280;57747;43.548;-5.704;2022-08-30T08:03:45;101801.63;;;20.84
70333;BMP280;57747;43.548;-5.704;2022-08-30T08:06:14;101805.31;;;20.88
70333;BMP280;57747;43.548;-5.704;2022-08-30T08:08:40;101809.94;;;20.96
70333;BMP280;57747;43.548;-5.704;2022-08-30T08:11:13;101809.91;;;21.05
70333;BMP280;57747;43.548;-5.704;2022-08-30T08:13:42;101811.03;;;21.04
70333;BMP280;57747;43.548;-5.704;2022-08-30T08:16:08;101809.72;;;21.10
70333;BMP280;57747;43.548;-5.704;2022-08-30T08:18:38;101809.28;;;21.08
70333;BMP280;57747;43.548;-5.704;2022-08-30T08:21:04;101809.72;;;21.10
70333;BMP280;57747;43.548;-5.704;2022-08-30T08:23:30;101816.19;;;20.88
70333;BMP280;57747;43.548;-5.704;2022-08-30T08:25:55;101822.94;;;20.91
70333;BMP280;57747;43.548;-5.704;2022-08-30T08:28:21;101830.78;;;21.01
70333;BMP280;57747;43.548;-5.704;2022-08-30T08:30:50;101825.00;;;21.02
70333;BMP280;57747;43.548;-5.704;2022-08-30T08:33:17;101826.94;;;21.02
70333;BMP280;57747;43.548;-5.704;2022-08-30T08:35:43;101826.13;;;21.01
70333;BMP280;57747;43.548;-5.704;2022-08-30T08:38:08;101829.00;;;20.96
70333;BMP280;57747;43.548;-5.704;2022-08-30T08:40:58;101837.19;;;20.96
70333;BMP280;57747;43.548;-5.704;2022-08-30T08:43:33;101841.50;;;21.06
70333;BMP280;57747;43.548;-5.704;2022-08-30T08:46:26;101834.44;;;21.05
70333;BMP280;57747;43.548;-5.704;2022-08-30T08:49:00;101837.56;;;20.86
70333;BMP280;57747;43.548;-5.704;2022-08-30T08:51:32;101841.34;;;21.11
70333;BMP280;57747;43.548;-5.704;2022-08-30T08:54:42;101841.34;;;21.11
70333;BMP280;57747;43.548;-5.704;2022-08-30T08:57:09;101842.94;;;21.12
70333;BMP280;57747;43.548;-5.704;2022-08-30T08:59:36;101850.13;;;21.17
70333;BMP280;57747;43.548;-5.704;2022-08-30T09:02:29;101845.69;;;21.03
70333;BMP280;57747;43.548;-5.704;2022-08-30T09:04:58;101841.53;;;20.97
70333;BMP280;57747;43.548;-5.704;2022-08-30T09:07:29;101851.19;;;20.95
70333;BMP280;57747;43.548;-5.704;2022-08-30T09:09:57;101842.84;;;20.91
70333;BMP280;57747;43.548;-5.704;2022-08-30T09:12:25;101856.34;;;21.26
70333;BMP280;57747;43.548;-5.704;2022-08-30T09:15:04;101861.13;;;21.29
70333;BMP280;57747;43.548;-5.704;2022-08-30T09:18:07;101853.06;;;21.41
70333;BMP280;57747;43.548;-5.704;2022-08-30T09:20:43;101857.59;;;21.37
70333;BMP280;57747;43.548;-5.704;2022-08-30T09:25:51;101859.59;;;21.49
70333;BMP280;57747;43.548;-5.704;2022-08-30T09:29:04;101855.94;;;21.45
70333;BMP280;57747;43.548;-5.704;2022-08-30T09:31:25;101858.97;;;21.52
70333;BMP280;57747;43.548;-5.704;2022-08-30T09:36:30;101858.97;;;21.82
70333;BMP280;57747;43.548;-5.704;2022-08-30T09:39:02;101850.84;;;21.94
70333;BMP280;57747;43.548;-5.704;2022-08-30T09:41:39;101863.16;;;22.22
70333;BMP280;57747;43.548;-5.704;2022-08-30T09:44:18;101865.41;;;22.19
70333;BMP280;57747;43.548;-5.704;2022-08-30T09:46:48;101869.06;;;22.24
70333;BMP280;57747;43.548;-5.704;2022-08-30T09:49:36;101874.03;;;22.30
70333;BMP280;57747;43.548;-5.704;2022-08-30T09:57:43;101868.97;;;22.53
70333;BMP280;57747;43.548;-5.704;2022-08-30T10:00:23;101872.47;;;22.42
70333;BMP280;57747;43.548;-5.704;2022-08-30T10:06:02;101878.66;;;22.09
70333;BMP280;57747;43.548;-5.704;2022-08-30T10:11:25;101881.06;;;21.89
70333;BMP280;57747;43.548;-5.704;2022-08-30T10:20:02;101875.66;;;22.23
70333;BMP280;57747;43.548;-5.704;2022-08-30T10:22:51;101878.47;;;22.14
70333;BMP280;57747;43.548;-5.704;2022-08-30T10:25:25;101868.78;;;22.37
70333;BMP280;57747;43.548;-5.704;2022-08-30T10:28:25;101870.91;;;22.53
70333;BMP280;57747;43.548;-5.704;2022-08-30T10:30:57;101880.75;;;22.33
70333;BMP280;57747;43.548;-5.704;2022-08-30T10:33:30;101871.31;;;22.43
70333;BMP280;57747;43.548;-5.704;2022-08-30T10:36:01;101879.19;;;22.44
70333;BMP280;57747;43.548;-5.704;2022-08-30T10:38:36;101881.47;;;22.42
70333;BMP280;57747;43.548;-5.704;2022-08-30T10:46:51;101872.81;;;22.86
70333;BMP280;57747;43.548;-5.704;2022-08-30T10:49:21;101876.25;;;22.95
70333;BMP280;57747;43.548;-5.704;2022-08-30T10:57:08;101876.06;;;23.12
70333;BMP280;57747;43.548;-5.704;2022-08-30T10:59:37;101883.03;;;22.43
70333;BMP280;57747;43.548;-5.704;2022-08-30T11:10:35;101869.19;;;22.27
70333;BMP280;57747;43.548;-5.704;2022-08-30T11:13:10;101874.94;;;22.34
70333;BMP280;57747;43.548;-5.704;2022-08-30T11:16:04;101875.56;;;22.52
70333;BMP280;57747;43.548;-5.704;2022-08-30T11:18:31;101870.09;;;22.52
70333;BMP280;57747;43.548;-5.704;2022-08-30T11:31:56;101861.41;;;22.84
70333;BMP280;57747;43.548;-5.704;2022-08-30T11:37:32;101858.00;;;22.87
70333;BMP280;57747;43.548;-5.704;2022-08-30T11:40:05;101859.91;;;22.62
70333;BMP280;57747;43.548;-5.704;2022-08-30T11:46:04;101868.31;;;22.69
70333;BMP280;57747;43.548;-5.704;2022-08-30T11:48:41;101856.91;;;23.00
70333;BMP280;57747;43.548;-5.704;2022-08-30T11:51:40;101856.75;;;22.84
70333;BMP280;57747;43.548;-5.704;2022-08-30T11:57:03;101857.38;;;22.56
70333;BMP280;57747;43.548;-5.704;2022-08-30T12:02:03;101857.31;;;22.77
70333;BMP280;57747;43.548;-5.704;2022-08-30T12:04:40;101850.56;;;22.75
70333;BMP280;57747;43.548;-5.704;2022-08-30T12:07:13;101846.13;;;22.70
70333;BMP280;57747;43.548;-5.704;2022-08-30T12:10:00;101852.31;;;22.46
70333;BMP280;57747;43.548;-5.704;2022-08-30T12:14:55;101858.75;;;22.63
70333;BMP280;57747;43.548;-5.704;2022-08-30T12:17:57;101860.78;;;22.53
70333;BMP280;57747;43.548;-5.704;2022-08-30T12:20:47;101866.38;;;22.57
70333;BMP280;57747;43.548;-5.704;2022-08-30T12:26:16;101866.06;;;22.37
70333;BMP280;57747;43.548;-5.704;2022-08-30T12:28:42;101860.72;;;22.74
70333;BMP280;57747;43.548;-5.704;2022-08-30T12:31:13;101858.34;;;22.73
70333;BMP280;57747;43.548;-5.704;2022-08-30T12:33:48;101864.09;;;22.59
70333;BMP280;57747;43.548;-5.704;2022-08-30T12:36:47;101855.59;;;22.39
70333;BMP280;57747;43.548;-5.704;2022-08-30T12:39:17;101859.94;;;22.41
70333;BMP280;57747;43.548;-5.704;2022-08-30T12:41:43;101862.78;;;22.44
70333;BMP280;57747;43.548;-5.704;2022-08-30T12:44:25;101858.81;;;22.42
70333;BMP280;57747;43.548;-5.704;2022-08-30T12:46:55;101861.16;;;22.31
70333;BMP280;57747;43.548;-5.704;2022-08-30T12:49:23;101859.09;;;22.28
70333;BMP280;57747;43.548;-5.704;2022-08-30T12:51:51;101857.16;;;22.28
70333;BMP280;57747;43.548;-5.704;2022-08-30T12:54:27;101863.19;;;22.34
70333;BMP280;57747;43.548;-5.704;2022-08-30T12:59:57;101864.94;;;22.38
70333;BMP280;57747;43.548;-5.704;2022-08-30T13:02:40;101870.03;;;22.40
70333;BMP280;57747;43.548;-5.704;2022-08-30T13:05:34;101873.72;;;22.44
70333;BMP280;57747;43.548;-5.704;2022-08-30T13:08:31;101863.91;;;22.43
70333;BMP280;57747;43.548;-5.704;2022-08-30T13:13:47;101879.50;;;22.30
70333;BMP280;57747;43.548;-5.704;2022-08-30T13:18:52;101876.19;;;22.70
70333;BMP280;57747;43.548;-5.704;2022-08-30T13:21:30;101869.53;;;22.47
70333;BMP280;57747;43.548;-5.704;2022-08-30T13:24:00;101880.81;;;22.57
70333;BMP280;57747;43.548;-5.704;2022-08-30T13:26:32;101880.63;;;22.63
70333;BMP280;57747;43.548;-5.704;2022-08-30T13:29:01;101879.00;;;22.28
70333;BMP280;57747;43.548;-5.704;2022-08-30T13:31:28;101872.16;;;22.22
70333;BMP280;57747;43.548;-5.704;2022-08-30T13:33:54;101885.44;;;22.45
70333;BMP280;57747;43.548;-5.704;2022-08-30T13:36:24;101876.44;;;22.77
70333;BMP280;57747;43.548;-5.704;2022-08-30T13:38:50;101877.09;;;22.62
70333;BMP280;57747;43.548;-5.704;2022-08-30T13:41:16;101880.31;;;22.43
70333;BMP280;57747;43.548;-5.704;2022-08-30T13:43:45;101879.91;;;22.32
70333;BMP280;57747;43.548;-5.704;2022-08-30T13:46:11;101885.44;;;22.24
70333;BMP280;57747;43.548;-5.704;2022-08-30T13:48:37;101878.22;;;22.28
70333;BMP280;57747;43.548;-5.704;2022-08-30T13:51:03;101877.31;;;22.36
70333;BMP280;57747;43.548;-5.704;2022-08-30T13:53:29;101887.13;;;21.95
70333;BMP280;57747;43.548;-5.704;2022-08-30T13:55:57;101885.97;;;21.96
70333;BMP280;57747;43.548;-5.704;2022-08-30T13:58:23;101887.63;;;22.18
70333;BMP280;57747;43.548;-5.704;2022-08-30T14:00:48;101884.31;;;22.25
70333;BMP280;57747;43.548;-5.704;2022-08-30T14:03:17;101878.94;;;21.95
70333;BMP280;57747;43.548;-5.704;2022-08-30T14:05:45;101878.66;;;22.30
70333;BMP280;57747;43.548;-5.704;2022-08-30T14:08:13;101875.81;;;22.26
70333;BMP280;57747;43.548;-5.704;2022-08-30T14:10:39;101875.16;;;22.29
70333;BMP280;57747;43.548;-5.704;2022-08-30T14:13:04;101884.09;;;22.51
70333;BMP280;57747;43.548;-5.704;2022-08-30T14:15:31;101887.56;;;22.27
70333;BMP280;57747;43.548;-5.704;2022-08-30T14:17:57;101885.19;;;22.37
70333;BMP280;57747;43.548;-5.704;2022-08-30T14:20:23;101889.28;;;22.65
70333;BMP280;57747;43.548;-5.704;2022-08-30T14:22:49;101888.53;;;22.22
70333;BMP280;57747;43.548;-5.704;2022-08-30T14:25:14;101883.91;;;22.35
70333;BMP280;57747;43.548;-5.704;2022-08-30T14:27:40;101881.34;;;22.38
70333;BMP280;57747;43.548;-5.704;2022-08-30T14:30:06;101886.28;;;22.24
70333;BMP280;57747;43.548;-5.704;2022-08-30T14:32:32;101881.03;;;22.31
70333;BMP280;57747;43.548;-5.704;2022-08-30T14:34:57;101883.72;;;22.19
70333;BMP280;57747;43.548;-5.704;2022-08-30T14:37:23;101872.59;;;22.45
70333;BMP280;57747;43.548;-5.704;2022-08-30T14:39:49;101885.44;;;22.45
70333;BMP280;57747;43.548;-5.704;2022-08-30T14:42:14;101879.56;;;22.22
70333;BMP280;57747;43.548;-5.704;2022-08-30T14:44:41;101882.53;;;22.29
70333;BMP280;57747;43.548;-5.704;2022-08-30T14:47:07;101882.28;;;22.22
70333;BMP280;57747;43.548;-5.704;2022-08-30T14:49:33;101878.13;;;22.15
70333;BMP280;57747;43.548;-5.704;2022-08-30T14:51:59;101880.25;;;22.52
70333;BMP280;57747;43.548;-5.704;2022-08-30T14:54:29;101877.38;;;22.27
70333;BMP280;57747;43.548;-5.704;2022-08-30T14:56:55;101878.41;;;22.23
70333;BMP280;57747;43.548;-5.704;2022-08-30T14:59:22;101880.69;;;22.21
70333;BMP280;57747;43.548;-5.704;2022-08-30T15:01:48;101888.47;;;22.10
70333;BMP280;57747;43.548;-5.704;2022-08-30T15:04:14;101887.78;;;21.92
70333;BMP280;57747;43.548;-5.704;2022-08-30T15:06:44;101882.28;;;22.00
70333;BMP280;57747;43.548;-5.704;2022-08-30T15:09:12;101877.75;;;22.05
70333;BMP280;57747;43.548;-5.704;2022-08-30T15:11:39;101883.59;;;22.15
70333;BMP280;57747;43.548;-5.704;2022-08-30T15:14:06;101880.19;;;21.97
70333;BMP280;57747;43.548;-5.704;2022-08-30T15:16:34;101880.88;;;21.94
70333;BMP280;57747;43.548;-5.704;2022-08-30T15:19:03;101877.59;;;22.01
70333;BMP280;57747;43.548;-5.704;2022-08-30T15:21:38;101881.81;;;21.98
70333;BMP280;57747;43.548;-5.704;2022-08-30T15:24:05;101873.31;;;21.91
70333;BMP280;57747;43.548;-5.704;2022-08-30T15:26:32;101877.56;;;21.80
70333;BMP280;57747;43.548;-5.704;2022-08-30T15:28:58;101875.34;;;22.03